sensor_id;sensor_type;location;lat;lon;timestamp;P1;durP1;ratioP1;P2;durP2;ratioP2
27666;SDS011;15074;50.940;5.282;2023-04-16T00:01:01;9.95;;;7.18;;
27666;SDS011;15074;50.940;5.282;2023-04-16T00:03:27;11.90;;;7.68;;
27666;SDS011;15074;50.940;5.282;2023-04-16T00:05:53;9.77;;;7.40;;
27666;SDS011;15074;50.940;5.282;2023-04-16T00:10:51;13.45;;;7.22;;
27666;SDS011;15074;50.940;5.282;2023-04-16T00:13:17;8.97;;;7.70;;
27666;SDS011;15074;50.940;5.282;2023-04-16T00:15:43;9.15;;;7.00;;
27666;SDS011;15074;50.940;5.282;2023-04-16T00:18:09;11.07;;;7.57;;
27666;SDS011;15074;50.940;5.282;2023-04-16T00:20:35;9.40;;;7.72;;
27666;SDS011;15074;50.940;5.282;2023-04-16T00:23:00;8.98;;;8.05;;
27666;SDS011;15074;50.940;5.282;2023-04-16T00:25:26;9.80;;;7.32;;
27666;SDS011;15074;50.940;5.282;2023-04-16T00:27:51;10.90;;;8.35;;
27666;SDS011;15074;50.940;5.282;2023-04-16T00:30:17;10.80;;;7.55;;
27666;SDS011;15074;50.940;5.282;2023-04-16T00:32:43;11.40;;;7.53;;
27666;SDS011;15074;50.940;5.282;2023-04-16T00:35:09;10.90;;;8.45;;
27666;SDS011;15074;50.940;5.282;2023-04-16T00:37:34;10.25;;;8.02;;
27666;SDS011;15074;50.940;5.282;2023-04-16T00:40:00;9.18;;;8.18;;
27666;SDS011;15074;50.940;5.282;2023-04-16T00:42:26;9.73;;;8.57;;
27666;SDS011;15074;50.940;5.282;2023-04-16T00:44:51;11.82;;;7.78;;
27666;SDS011;15074;50.940;5.282;2023-04-16T00:47:18;10.02;;;8.02;;
27666;SDS011;15074;50.940;5.282;2023-04-16T00:49:45;13.35;;;8.48;;
27666;SDS011;15074;50.940;5.282;2023-04-16T00:52:11;10.73;;;7.75;;
27666;SDS011;15074;50.940;5.282;2023-04-16T00:54:37;9.77;;;7.97;;
27666;SDS011;15074;50.940;5.282;2023-04-16T00:57:03;12.65;;;7.35;;
27666;SDS011;15074;50.940;5.282;2023-04-16T00:59:30;11.57;;;8.32;;
27666;SDS011;15074;50.940;5.282;2023-04-16T01:01:56;10.05;;;7.72;;
27666;SDS011;15074;50.940;5.282;2023-04-16T01:04:22;12.13;;;7.93;;
27666;SDS011;15074;50.940;5.282;2023-04-16T01:06:48;15.52;;;8.90;;
27666;SDS011;15074;50.940;5.282;2023-04-16T01:09:15;11.90;;;8.50;;
27666;SDS011;15074;50.940;5.282;2023-04-16T01:11:41;14.52;;;8.05;;
27666;SDS011;15074;50.940;5.282;2023-04-16T01:14:06;9.45;;;8.55;;
27666;SDS011;15074;50.940;5.282;2023-04-16T01:16:32;11.73;;;8.10;;
27666;SDS011;15074;50.940;5.282;2023-04-16T01:18:58;15.10;;;8.55;;
27666;SDS011;15074;50.940;5.282;2023-04-16T01:21:23;19.48;;;8.38;;
27666;SDS011;15074;50.940;5.282;2023-04-16T01:23:50;10.32;;;7.90;;
27666;SDS011;15074;50.940;5.282;2023-04-16T01:26:16;10.65;;;7.82;;
27666;SDS011;15074;50.940;5.282;2023-04-16T01:28:42;17.88;;;8.30;;
27666;SDS011;15074;50.940;5.282;2023-04-16T01:31:08;13.77;;;8.30;;
27666;SDS011;15074;50.940;5.282;2023-04-16T01:33:33;12.52;;;7.55;;
27666;SDS011;15074;50.940;5.282;2023-04-16T01:35:59;8.60;;;7.80;;
27666;SDS011;15074;50.940;5.282;2023-04-16T01:38:25;14.35;;;8.38;;
27666;SDS011;15074;50.940;5.282;2023-04-16T01:40:54;11.45;;;8.77;;
27666;SDS011;15074;50.940;5.282;2023-04-16T01:43:23;9.20;;;8.25;;
27666;SDS011;15074;50.940;5.282;2023-04-16T01:45:49;10.18;;;8.07;;
27666;SDS011;15074;50.940;5.282;2023-04-16T01:48:16;9.52;;;7.97;;
27666;SDS011;15074;50.940;5.282;2023-04-16T01:50:42;16.58;;;8.38;;
27666;SDS011;15074;50.940;5.282;2023-04-16T01:53:07;10.20;;;7.70;;
27666;SDS011;15074;50.940;5.282;2023-04-16T01:55:33;12.77;;;8.38;;
27666;SDS011;15074;50.940;5.282;2023-04-16T01:57:59;10.48;;;9.15;;
27666;SDS011;15074;50.940;5.282;2023-04-16T02:00:25;13.82;;;8.00;;
27666;SDS011;15074;50.940;5.282;2023-04-16T02:02:51;12.88;;;8.63;;
27666;SDS011;15074;50.940;5.282;2023-04-16T02:05:16;9.50;;;8.45;;
27666;SDS011;15074;50.940;5.282;2023-04-16T02:07:42;15.93;;;10.30;;
27666;SDS011;15074;50.940;5.282;2023-04-16T02:10:08;10.82;;;9.77;;
27666;SDS011;15074;50.940;5.282;2023-04-16T02:12:34;12.57;;;9.10;;
27666;SDS011;15074;50.940;5.282;2023-04-16T02:15:00;10.93;;;9.82;;
27666;SDS011;15074;50.940;5.282;2023-04-16T02:17:25;11.25;;;9.90;;
27666;SDS011;15074;50.940;5.282;2023-04-16T02:19:51;13.85;;;10.90;;
27666;SDS011;15074;50.940;5.282;2023-04-16T02:22:17;14.98;;;10.73;;
27666;SDS011;15074;50.940;5.282;2023-04-16T02:24:42;13.70;;;10.77;;
27666;SDS011;15074;50.940;5.282;2023-04-16T02:27:08;15.93;;;10.50;;
27666;SDS011;15074;50.940;5.282;2023-04-16T02:29:34;14.25;;;10.13;;
27666;SDS011;15074;50.940;5.282;2023-04-16T02:31:59;14.77;;;10.98;;
27666;SDS011;15074;50.940;5.282;2023-04-16T02:34:25;12.18;;;10.98;;
27666;SDS011;15074;50.940;5.282;2023-04-16T02:36:51;11.32;;;10.02;;
27666;SDS011;15074;50.940;5.282;2023-04-16T02:39:18;17.15;;;11.15;;
27666;SDS011;15074;50.940;5.282;2023-04-16T02:41:43;12.70;;;11.18;;
27666;SDS011;15074;50.940;5.282;2023-04-16T02:44:09;13.48;;;10.93;;
27666;SDS011;15074;50.940;5.282;2023-04-16T02:46:35;13.88;;;9.98;;
27666;SDS011;15074;50.940;5.282;2023-04-16T02:49:00;13.45;;;11.43;;
27666;SDS011;15074;50.940;5.282;2023-04-16T02:51:26;12.77;;;10.25;;
27666;SDS011;15074;50.940;5.282;2023-04-16T02:53:53;12.27;;;11.18;;
27666;SDS011;15074;50.940;5.282;2023-04-16T02:56:18;15.18;;;11.48;;
27666;SDS011;15074;50.940;5.282;2023-04-16T02:58:44;17.50;;;12.27;;
27666;SDS011;15074;50.940;5.282;2023-04-16T03:01:09;16.90;;;11.85;;
27666;SDS011;15074;50.940;5.282;2023-04-16T03:03:35;13.18;;;11.98;;
27666;SDS011;15074;50.940;5.282;2023-04-16T03:06:01;17.52;;;12.80;;
27666;SDS011;15074;50.940;5.282;2023-04-16T03:08:26;17.00;;;12.00;;
27666;SDS011;15074;50.940;5.282;2023-04-16T03:10:52;12.35;;;11.18;;
27666;SDS011;15074;50.940;5.282;2023-04-16T03:13:18;13.55;;;11.95;;
27666;SDS011;15074;50.940;5.282;2023-04-16T03:15:47;13.40;;;12.07;;
27666;SDS011;15074;50.940;5.282;2023-04-16T03:18:13;20.38;;;11.82;;
27666;SDS011;15074;50.940;5.282;2023-04-16T03:20:40;16.73;;;12.43;;
27666;SDS011;15074;50.940;5.282;2023-04-16T03:23:05;13.20;;;11.10;;
27666;SDS011;15074;50.940;5.282;2023-04-16T03:25:31;16.08;;;10.82;;
27666;SDS011;15074;50.940;5.282;2023-04-16T03:27:57;18.08;;;11.85;;
27666;SDS011;15074;50.940;5.282;2023-04-16T03:30:22;11.68;;;10.57;;
27666;SDS011;15074;50.940;5.282;2023-04-16T03:32:48;12.20;;;10.95;;
27666;SDS011;15074;50.940;5.282;2023-04-16T03:35:13;16.17;;;11.48;;
27666;SDS011;15074;50.940;5.282;2023-04-16T03:37:39;13.05;;;11.45;;
27666;SDS011;15074;50.940;5.282;2023-04-16T03:40:05;12.77;;;11.23;;
27666;SDS011;15074;50.940;5.282;2023-04-16T03:42:31;16.73;;;11.70;;
27666;SDS011;15074;50.940;5.282;2023-04-16T03:44:57;12.98;;;11.65;;
27666;SDS011;15074;50.940;5.282;2023-04-16T03:47:23;18.05;;;12.25;;
27666;SDS011;15074;50.940;5.282;2023-04-16T03:49:49;16.65;;;12.10;;
27666;SDS011;15074;50.940;5.282;2023-04-16T03:52:15;14.45;;;12.68;;
27666;SDS011;15074;50.940;5.282;2023-04-16T03:54:40;14.13;;;12.73;;
27666;SDS011;15074;50.940;5.282;2023-04-16T03:57:06;17.65;;;13.07;;
27666;SDS011;15074;50.940;5.282;2023-04-16T03:59:31;20.90;;;14.55;;
27666;SDS011;15074;50.940;5.282;2023-04-16T04:01:57;23.23;;;14.40;;
27666;SDS011;15074;50.940;5.282;2023-04-16T04:04:23;19.00;;;15.68;;
27666;SDS011;15074;50.940;5.282;2023-04-16T04:06:48;17.60;;;14.25;;
27666;SDS011;15074;50.940;5.282;2023-04-16T04:09:14;17.00;;;14.52;;
27666;SDS011;15074;50.940;5.282;2023-04-16T04:11:40;22.73;;;15.25;;
27666;SDS011;15074;50.940;5.282;2023-04-16T04:14:07;16.58;;;14.55;;
27666;SDS011;15074;50.940;5.282;2023-04-16T04:16:33;23.98;;;15.40;;
27666;SDS011;15074;50.940;5.282;2023-04-16T04:18:59;18.95;;;15.35;;
27666;SDS011;15074;50.940;5.282;2023-04-16T04:21:27;26.27;;;15.98;;
27666;SDS011;15074;50.940;5.282;2023-04-16T04:23:53;22.00;;;15.27;;
27666;SDS011;15074;50.940;5.282;2023-04-16T04:26:19;18.52;;;15.35;;
27666;SDS011;15074;50.940;5.282;2023-04-16T04:28:45;25.15;;;14.57;;
27666;SDS011;15074;50.940;5.282;2023-04-16T04:31:11;21.05;;;15.73;;
27666;SDS011;15074;50.940;5.282;2023-04-16T04:33:37;19.33;;;14.95;;
27666;SDS011;15074;50.940;5.282;2023-04-16T04:36:02;17.08;;;15.07;;
27666;SDS011;15074;50.940;5.282;2023-04-16T04:38:28;17.30;;;15.45;;
27666;SDS011;15074;50.940;5.282;2023-04-16T04:40:54;21.17;;;16.27;;
27666;SDS011;15074;50.940;5.282;2023-04-16T04:43:20;22.13;;;15.65;;
27666;SDS011;15074;50.940;5.282;2023-04-16T04:45:46;30.30;;;16.27;;
27666;SDS011;15074;50.940;5.282;2023-04-16T04:48:13;25.98;;;15.80;;
27666;SDS011;15074;50.940;5.282;2023-04-16T04:50:38;21.63;;;15.73;;
27666;SDS011;15074;50.940;5.282;2023-04-16T04:53:05;22.38;;;15.88;;
27666;SDS011;15074;50.940;5.282;2023-04-16T04:55:37;22.15;;;15.35;;
27666;SDS011;15074;50.940;5.282;2023-04-16T04:58:04;20.90;;;15.20;;
27666;SDS011;15074;50.940;5.282;2023-04-16T05:00:31;19.08;;;15.25;;
27666;SDS011;15074;50.940;5.282;2023-04-16T05:03:00;22.42;;;14.73;;
27666;SDS011;15074;50.940;5.282;2023-04-16T06:18:30;31.10;;;18.77;;
27666;SDS011;15074;50.940;5.282;2023-04-16T06:20:55;28.42;;;17.77;;
27666;SDS011;15074;50.940;5.282;2023-04-16T06:23:23;35.60;;;19.53;;
27666;SDS011;15074;50.940;5.282;2023-04-16T06:25:49;33.67;;;19.10;;
27666;SDS011;15074;50.940;5.282;2023-04-16T06:28:15;27.88;;;18.42;;
27666;SDS011;15074;50.940;5.282;2023-04-16T06:41:02;24.05;;;17.33;;
27666;SDS011;15074;50.940;5.282;2023-04-16T06:43:28;20.52;;;16.25;;
27666;SDS011;15074;50.940;5.282;2023-04-16T06:45:54;29.33;;;15.45;;
27666;SDS011;15074;50.940;5.282;2023-04-16T06:48:20;18.63;;;13.68;;
27666;SDS011;15074;50.940;5.282;2023-04-16T06:55:56;24.77;;;14.65;;
27666;SDS011;15074;50.940;5.282;2023-04-16T06:58:22;15.93;;;14.25;;
27666;SDS011;15074;50.940;5.282;2023-04-16T07:00:48;15.02;;;13.38;;
27666;SDS011;15074;50.940;5.282;2023-04-16T07:03:13;16.38;;;13.63;;
27666;SDS011;15074;50.940;5.282;2023-04-16T07:05:39;24.38;;;15.13;;
27666;SDS011;15074;50.940;5.282;2023-04-16T07:08:05;28.10;;;15.05;;
27666;SDS011;15074;50.940;5.282;2023-04-16T07:13:07;18.10;;;13.70;;
27666;SDS011;15074;50.940;5.282;2023-04-16T07:15:32;18.25;;;13.50;;
27666;SDS011;15074;50.940;5.282;2023-04-16T07:17:58;18.00;;;13.80;;
27666;SDS011;15074;50.940;5.282;2023-04-16T07:33:21;18.52;;;14.02;;
27666;SDS011;15074;50.940;5.282;2023-04-16T07:35:47;17.77;;;13.13;;
27666;SDS011;15074;50.940;5.282;2023-04-16T07:38:14;18.50;;;13.48;;
27666;SDS011;15074;50.940;5.282;2023-04-16T07:40:40;17.48;;;15.15;;
27666;SDS011;15074;50.940;5.282;2023-04-16T07:43:06;20.50;;;13.90;;
27666;SDS011;15074;50.940;5.282;2023-04-16T07:45:31;22.55;;;13.77;;
27666;SDS011;15074;50.940;5.282;2023-04-16T07:47:57;24.42;;;15.60;;
27666;SDS011;15074;50.940;5.282;2023-04-16T07:50:23;22.10;;;14.35;;
27666;SDS011;15074;50.940;5.282;2023-04-16T07:52:49;20.70;;;14.35;;
27666;SDS011;15074;50.940;5.282;2023-04-16T07:55:15;18.70;;;13.80;;
27666;SDS011;15074;50.940;5.282;2023-04-16T07:57:41;21.10;;;13.77;;
27666;SDS011;15074;50.940;5.282;2023-04-16T08:00:07;18.13;;;13.73;;
27666;SDS011;15074;50.940;5.282;2023-04-16T08:02:33;21.50;;;14.85;;
27666;SDS011;15074;50.940;5.282;2023-04-16T08:04:59;18.52;;;13.70;;
27666;SDS011;15074;50.940;5.282;2023-04-16T08:07:25;24.83;;;14.90;;
27666;SDS011;15074;50.940;5.282;2023-04-16T08:09:51;20.42;;;14.48;;
27666;SDS011;15074;50.940;5.282;2023-04-16T08:12:17;18.50;;;14.15;;
27666;SDS011;15074;50.940;5.282;2023-04-16T08:14:43;23.70;;;15.55;;
27666;SDS011;15074;50.940;5.282;2023-04-16T08:17:10;16.77;;;15.10;;
27666;SDS011;15074;50.940;5.282;2023-04-16T08:19:36;17.77;;;14.52;;
27666;SDS011;15074;50.940;5.282;2023-04-16T08:22:02;26.00;;;15.50;;
27666;SDS011;15074;50.940;5.282;2023-04-16T08:24:28;17.05;;;14.65;;
27666;SDS011;15074;50.940;5.282;2023-04-16T08:26:53;19.80;;;14.85;;
27666;SDS011;15074;50.940;5.282;2023-04-16T08:29:19;17.88;;;14.55;;
27666;SDS011;15074;50.940;5.282;2023-04-16T08:31:45;21.38;;;15.18;;
27666;SDS011;15074;50.940;5.282;2023-04-16T08:34:11;23.65;;;14.88;;
27666;SDS011;15074;50.940;5.282;2023-04-16T08:36:37;15.88;;;13.95;;
27666;SDS011;15074;50.940;5.282;2023-04-16T08:39:04;30.55;;;15.20;;
27666;SDS011;15074;50.940;5.282;2023-04-16T08:41:30;21.13;;;14.73;;
27666;SDS011;15074;50.940;5.282;2023-04-16T08:46:25;21.08;;;15.07;;
27666;SDS011;15074;50.940;5.282;2023-04-16T08:48:53;16.67;;;14.80;;
27666;SDS011;15074;50.940;5.282;2023-04-16T08:51:22;16.88;;;14.38;;
27666;SDS011;15074;50.940;5.282;2023-04-16T08:53:51;21.30;;;15.05;;
27666;SDS011;15074;50.940;5.282;2023-04-16T08:56:22;21.90;;;14.57;;
27666;SDS011;15074;50.940;5.282;2023-04-16T08:58:49;15.70;;;13.40;;
27666;SDS011;15074;50.940;5.282;2023-04-16T09:01:16;19.42;;;14.88;;
27666;SDS011;15074;50.940;5.282;2023-04-16T09:03:46;15.68;;;13.48;;
27666;SDS011;15074;50.940;5.282;2023-04-16T09:06:12;15.18;;;13.60;;
27666;SDS011;15074;50.940;5.282;2023-04-16T09:08:40;20.80;;;14.95;;
27666;SDS011;15074;50.940;5.282;2023-04-16T09:11:08;16.80;;;13.75;;
27666;SDS011;15074;50.940;5.282;2023-04-16T09:13:35;19.23;;;14.15;;
27666;SDS011;15074;50.940;5.282;2023-04-16T09:16:02;21.92;;;13.95;;
27666;SDS011;15074;50.940;5.282;2023-04-16T09:18:29;17.63;;;14.18;;
27666;SDS011;15074;50.940;5.282;2023-04-16T09:20:55;14.70;;;12.18;;
27666;SDS011;15074;50.940;5.282;2023-04-16T09:23:21;14.27;;;12.90;;
27666;SDS011;15074;50.940;5.282;2023-04-16T09:25:47;15.75;;;13.32;;
27666;SDS011;15074;50.940;5.282;2023-04-16T09:28:37;18.17;;;14.75;;
27666;SDS011;15074;50.940;5.282;2023-04-16T09:31:15;30.08;;;15.38;;
27666;SDS011;15074;50.940;5.282;2023-04-16T09:33:42;21.90;;;15.40;;
27666;SDS011;15074;50.940;5.282;2023-04-16T09:36:24;17.52;;;14.10;;
27666;SDS011;15074;50.940;5.282;2023-04-16T09:38:52;16.15;;;14.45;;
27666;SDS011;15074;50.940;5.282;2023-04-16T09:41:18;28.83;;;15.30;;
27666;SDS011;15074;50.940;5.282;2023-04-16T09:43:55;22.52;;;15.02;;
27666;SDS011;15074;50.940;5.282;2023-04-16T09:48:56;30.35;;;18.90;;
27666;SDS011;15074;50.940;5.282;2023-04-16T09:51:22;27.25;;;17.42;;
27666;SDS011;15074;50.940;5.282;2023-04-16T09:53:55;24.92;;;16.88;;
27666;SDS011;15074;50.940;5.282;2023-04-16T09:56:24;18.10;;;14.85;;
27666;SDS011;15074;50.940;5.282;2023-04-16T09:58:50;27.75;;;18.48;;
27666;SDS011;15074;50.940;5.282;2023-04-16T10:01:20;48.65;;;25.75;;
27666;SDS011;15074;50.940;5.282;2023-04-16T10:03:47;22.38;;;15.80;;
27666;SDS011;15074;50.940;5.282;2023-04-16T10:06:16;35.83;;;16.08;;
27666;SDS011;15074;50.940;5.282;2023-04-16T10:08:50;27.92;;;17.85;;
27666;SDS011;15074;50.940;5.282;2023-04-16T10:11:17;24.80;;;16.90;;
27666;SDS011;15074;50.940;5.282;2023-04-16T10:13:44;57.03;;;19.80;;
27666;SDS011;15074;50.940;5.282;2023-04-16T10:16:11;29.17;;;16.30;;
27666;SDS011;15074;50.940;5.282;2023-04-16T10:18:38;20.35;;;16.15;;
27666;SDS011;15074;50.940;5.282;2023-04-16T10:21:05;20.83;;;15.25;;
27666;SDS011;15074;50.940;5.282;2023-04-16T10:23:32;17.88;;;15.20;;
27666;SDS011;15074;50.940;5.282;2023-04-16T10:25:58;17.45;;;14.52;;
27666;SDS011;15074;50.940;5.282;2023-04-16T10:28:25;18.85;;;14.15;;
27666;SDS011;15074;50.940;5.282;2023-04-16T10:30:53;17.08;;;15.18;;
27666;SDS011;15074;50.940;5.282;2023-04-16T10:33:21;19.80;;;16.13;;
27666;SDS011;15074;50.940;5.282;2023-04-16T10:35:53;16.90;;;14.93;;
27666;SDS011;15074;50.940;5.282;2023-04-16T10:38:45;22.70;;;16.42;;
27666;SDS011;15074;50.940;5.282;2023-04-16T10:41:13;21.60;;;15.77;;
27666;SDS011;15074;50.940;5.282;2023-04-16T10:43:39;20.05;;;15.32;;
27666;SDS011;15074;50.940;5.282;2023-04-16T10:49:14;20.13;;;16.60;;
27666;SDS011;15074;50.940;5.282;2023-04-16T10:52:25;27.80;;;16.25;;
27666;SDS011;15074;50.940;5.282;2023-04-16T10:54:36;24.38;;;16.95;;
27666;SDS011;15074;50.940;5.282;2023-04-16T10:57:03;21.48;;;17.67;;
27666;SDS011;15074;50.940;5.282;2023-04-16T10:59:34;24.63;;;18.08;;
27666;SDS011;15074;50.940;5.282;2023-04-16T11:02:05;27.40;;;17.30;;
27666;SDS011;15074;50.940;5.282;2023-04-16T11:04:34;24.98;;;15.77;;
27666;SDS011;15074;50.940;5.282;2023-04-16T11:12:06;18.23;;;14.75;;
27666;SDS011;15074;50.940;5.282;2023-04-16T11:14:33;20.67;;;15.13;;
27666;SDS011;15074;50.940;5.282;2023-04-16T11:17:01;18.83;;;14.98;;
27666;SDS011;15074;50.940;5.282;2023-04-16T11:21:53;28.08;;;15.73;;
27666;SDS011;15074;50.940;5.282;2023-04-16T11:24:19;17.73;;;15.88;;
27666;SDS011;15074;50.940;5.282;2023-04-16T11:26:45;28.75;;;15.25;;
27666;SDS011;15074;50.940;5.282;2023-04-16T11:29:15;26.33;;;16.27;;
27666;SDS011;15074;50.940;5.282;2023-04-16T11:31:41;22.30;;;16.55;;
27666;SDS011;15074;50.940;5.282;2023-04-16T11:34:13;30.63;;;15.80;;
27666;SDS011;15074;50.940;5.282;2023-04-16T11:36:47;17.70;;;15.52;;
27666;SDS011;15074;50.940;5.282;2023-04-16T11:39:14;26.95;;;15.27;;
27666;SDS011;15074;50.940;5.282;2023-04-16T11:41:43;25.45;;;15.15;;
27666;SDS011;15074;50.940;5.282;2023-04-16T11:44:25;25.85;;;16.48;;
27666;SDS011;15074;50.940;5.282;2023-04-16T11:46:52;23.73;;;16.20;;
27666;SDS011;15074;50.940;5.282;2023-04-16T11:49:31;25.15;;;16.20;;
27666;SDS011;15074;50.940;5.282;2023-04-16T11:54:22;21.77;;;15.63;;
27666;SDS011;15074;50.940;5.282;2023-04-16T11:56:49;23.02;;;16.63;;
27666;SDS011;15074;50.940;5.282;2023-04-16T11:59:20;21.25;;;16.92;;
27666;SDS011;15074;50.940;5.282;2023-04-16T12:01:56;30.67;;;16.92;;
27666;SDS011;15074;50.940;5.282;2023-04-16T12:04:22;24.25;;;16.58;;
27666;SDS011;15074;50.940;5.282;2023-04-16T12:09:36;23.25;;;16.50;;
27666;SDS011;15074;50.940;5.282;2023-04-16T12:12:03;28.00;;;15.63;;
27666;SDS011;15074;50.940;5.282;2023-04-16T12:14:29;25.70;;;17.70;;
27666;SDS011;15074;50.940;5.282;2023-04-16T12:16:56;29.95;;;16.13;;
27666;SDS011;15074;50.940;5.282;2023-04-16T12:20:01;23.70;;;16.30;;
27666;SDS011;15074;50.940;5.282;2023-04-16T12:22:38;34.47;;;16.90;;
27666;SDS011;15074;50.940;5.282;2023-04-16T12:25:06;23.38;;;15.95;;
27666;SDS011;15074;50.940;5.282;2023-04-16T12:30:07;28.38;;;16.50;;
27666;SDS011;15074;50.940;5.282;2023-04-16T12:32:34;24.70;;;15.93;;
27666;SDS011;15074;50.940;5.282;2023-04-16T12:35:00;20.38;;;14.95;;
27666;SDS011;15074;50.940;5.282;2023-04-16T12:37:26;25.65;;;17.95;;
27666;SDS011;15074;50.940;5.282;2023-04-16T12:39:52;19.02;;;16.05;;
27666;SDS011;15074;50.940;5.282;2023-04-16T12:42:19;18.50;;;15.45;;
27666;SDS011;15074;50.940;5.282;2023-04-16T12:44:45;17.05;;;15.23;;
27666;SDS011;15074;50.940;5.282;2023-04-16T12:47:11;18.00;;;14.35;;
27666;SDS011;15074;50.940;5.282;2023-04-16T12:49:36;24.02;;;15.52;;
27666;SDS011;15074;50.940;5.282;2023-04-16T12:52:02;22.77;;;15.23;;
27666;SDS011;15074;50.940;5.282;2023-04-16T12:54:28;22.10;;;15.52;;
27666;SDS011;15074;50.940;5.282;2023-04-16T12:56:55;17.80;;;14.90;;
27666;SDS011;15074;50.940;5.282;2023-04-16T12:59:21;17.25;;;15.02;;
27666;SDS011;15074;50.940;5.282;2023-04-16T13:01:48;17.25;;;14.52;;
27666;SDS011;15074;50.940;5.282;2023-04-16T13:04:13;18.98;;;14.95;;
27666;SDS011;15074;50.940;5.282;2023-04-16T13:06:39;19.63;;;14.70;;
27666;SDS011;15074;50.940;5.282;2023-04-16T13:09:05;19.27;;;15.25;;
27666;SDS011;15074;50.940;5.282;2023-04-16T13:11:32;21.33;;;15.63;;
27666;SDS011;15074;50.940;5.282;2023-04-16T13:13:57;21.00;;;15.63;;
27666;SDS011;15074;50.940;5.282;2023-04-16T13:16:23;20.30;;;15.02;;
27666;SDS011;15074;50.940;5.282;2023-04-16T13:18:49;26.02;;;16.88;;
27666;SDS011;15074;50.940;5.282;2023-04-16T13:21:15;23.88;;;17.08;;
27666;SDS011;15074;50.940;5.282;2023-04-16T13:23:40;21.90;;;15.93;;
27666;SDS011;15074;50.940;5.282;2023-04-16T13:26:06;21.30;;;15.57;;
27666;SDS011;15074;50.940;5.282;2023-04-16T13:28:32;17.75;;;15.98;;
27666;SDS011;15074;50.940;5.282;2023-04-16T13:30:58;22.73;;;16.80;;
27666;SDS011;15074;50.940;5.282;2023-04-16T13:33:24;18.77;;;16.00;;
27666;SDS011;15074;50.940;5.282;2023-04-16T13:35:50;23.02;;;17.85;;
27666;SDS011;15074;50.940;5.282;2023-04-16T13:38:15;27.08;;;18.17;;
27666;SDS011;15074;50.940;5.282;2023-04-16T13:40:41;28.05;;;17.67;;
27666;SDS011;15074;50.940;5.282;2023-04-16T13:43:07;23.60;;;17.50;;
27666;SDS011;15074;50.940;5.282;2023-04-16T13:45:32;19.02;;;16.48;;
27666;SDS011;15074;50.940;5.282;2023-04-16T13:47:58;31.42;;;17.65;;
27666;SDS011;15074;50.940;5.282;2023-04-16T13:50:24;23.40;;;16.95;;
27666;SDS011;15074;50.940;5.282;2023-04-16T13:52:50;21.08;;;15.75;;
27666;SDS011;15074;50.940;5.282;2023-04-16T13:55:16;17.38;;;15.57;;
27666;SDS011;15074;50.940;5.282;2023-04-16T13:57:46;18.10;;;15.43;;
27666;SDS011;15074;50.940;5.282;2023-04-16T14:00:12;18.25;;;15.23;;
27666;SDS011;15074;50.940;5.282;2023-04-16T14:02:40;17.17;;;15.52;;
27666;SDS011;15074;50.940;5.282;2023-04-16T14:05:07;19.52;;;16.58;;
27666;SDS011;15074;50.940;5.282;2023-04-16T14:07:33;21.42;;;18.17;;
27666;SDS011;15074;50.940;5.282;2023-04-16T14:09:59;27.25;;;18.30;;
27666;SDS011;15074;50.940;5.282;2023-04-16T14:12:25;23.15;;;16.88;;
27666;SDS011;15074;50.940;5.282;2023-04-16T14:14:51;24.70;;;17.85;;
27666;SDS011;15074;50.940;5.282;2023-04-16T14:17:17;26.73;;;18.33;;
27666;SDS011;15074;50.940;5.282;2023-04-16T14:19:43;18.50;;;14.90;;
27666;SDS011;15074;50.940;5.282;2023-04-16T14:22:08;16.17;;;14.57;;
27666;SDS011;15074;50.940;5.282;2023-04-16T14:24:34;19.20;;;15.38;;
27666;SDS011;15074;50.940;5.282;2023-04-16T14:27:00;15.93;;;14.55;;
27666;SDS011;15074;50.940;5.282;2023-04-16T14:29:26;18.75;;;15.00;;
27666;SDS011;15074;50.940;5.282;2023-04-16T14:31:51;16.17;;;13.13;;
27666;SDS011;15074;50.940;5.282;2023-04-16T14:34:17;17.83;;;15.23;;
27666;SDS011;15074;50.940;5.282;2023-04-16T14:36:43;15.25;;;13.65;;
27666;SDS011;15074;50.940;5.282;2023-04-16T14:39:09;15.52;;;13.48;;
27666;SDS011;15074;50.940;5.282;2023-04-16T14:41:35;14.98;;;13.48;;
27666;SDS011;15074;50.940;5.282;2023-04-16T14:44:01;13.85;;;12.52;;
27666;SDS011;15074;50.940;5.282;2023-04-16T14:46:30;15.02;;;13.38;;
27666;SDS011;15074;50.940;5.282;2023-04-16T14:48:57;14.13;;;12.80;;
27666;SDS011;15074;50.940;5.282;2023-04-16T14:51:23;15.27;;;13.70;;
27666;SDS011;15074;50.940;5.282;2023-04-16T14:53:49;14.60;;;13.05;;
27666;SDS011;15074;50.940;5.282;2023-04-16T14:56:14;14.93;;;13.52;;
27666;SDS011;15074;50.940;5.282;2023-04-16T14:58:40;15.70;;;13.60;;
27666;SDS011;15074;50.940;5.282;2023-04-16T15:01:07;14.43;;;13.10;;
27666;SDS011;15074;50.940;5.282;2023-04-16T15:03:33;15.18;;;13.77;;
27666;SDS011;15074;50.940;5.282;2023-04-16T15:05:58;15.73;;;14.13;;
27666;SDS011;15074;50.940;5.282;2023-04-16T15:08:24;15.60;;;14.10;;
27666;SDS011;15074;50.940;5.282;2023-04-16T15:10:50;16.48;;;14.80;;
27666;SDS011;15074;50.940;5.282;2023-04-16T15:13:16;17.10;;;15.20;;
27666;SDS011;15074;50.940;5.282;2023-04-16T15:15:42;19.85;;;16.55;;
27666;SDS011;15074;50.940;5.282;2023-04-16T15:18:07;19.88;;;17.08;;
27666;SDS011;15074;50.940;5.282;2023-04-16T15:20:33;20.17;;;18.10;;
27666;SDS011;15074;50.940;5.282;2023-04-16T15:22:59;22.38;;;17.27;;
27666;SDS011;15074;50.940;5.282;2023-04-16T15:25:25;19.05;;;17.23;;
27666;SDS011;15074;50.940;5.282;2023-04-16T15:27:51;19.15;;;16.08;;
27666;SDS011;15074;50.940;5.282;2023-04-16T15:30:17;17.67;;;15.90;;
27666;SDS011;15074;50.940;5.282;2023-04-16T15:32:43;24.98;;;17.25;;
27666;SDS011;15074;50.940;5.282;2023-04-16T15:35:09;22.58;;;17.13;;
27666;SDS011;15074;50.940;5.282;2023-04-16T15:37:35;18.83;;;16.85;;
27666;SDS011;15074;50.940;5.282;2023-04-16T15:40:01;19.20;;;17.15;;
27666;SDS011;15074;50.940;5.282;2023-04-16T15:42:29;18.58;;;16.77;;
27666;SDS011;15074;50.940;5.282;2023-04-16T15:44:55;18.42;;;16.77;;
27666;SDS011;15074;50.940;5.282;2023-04-16T15:47:21;19.45;;;16.63;;
27666;SDS011;15074;50.940;5.282;2023-04-16T15:49:47;19.27;;;17.20;;
27666;SDS011;15074;50.940;5.282;2023-04-16T15:52:12;21.35;;;15.88;;
27666;SDS011;15074;50.940;5.282;2023-04-16T15:54:38;18.52;;;16.45;;
27666;SDS011;15074;50.940;5.282;2023-04-16T15:57:04;19.20;;;16.88;;
27666;SDS011;15074;50.940;5.282;2023-04-16T15:59:30;18.85;;;16.83;;
27666;SDS011;15074;50.940;5.282;2023-04-16T16:01:56;19.52;;;17.42;;
27666;SDS011;15074;50.940;5.282;2023-04-16T16:04:22;18.60;;;16.60;;
27666;SDS011;15074;50.940;5.282;2023-04-16T16:06:50;20.48;;;16.98;;
27666;SDS011;15074;50.940;5.282;2023-04-16T16:09:17;18.13;;;15.82;;
27666;SDS011;15074;50.940;5.282;2023-04-16T16:11:49;22.08;;;16.85;;
27666;SDS011;15074;50.940;5.282;2023-04-16T16:14:19;19.63;;;16.17;;
27666;SDS011;15074;50.940;5.282;2023-04-16T16:16:45;21.35;;;17.33;;
27666;SDS011;15074;50.940;5.282;2023-04-16T16:19:11;21.70;;;15.38;;
27666;SDS011;15074;50.940;5.282;2023-04-16T16:21:36;17.40;;;15.68;;
27666;SDS011;15074;50.940;5.282;2023-04-16T16:24:02;17.25;;;15.65;;
27666;SDS011;15074;50.940;5.282;2023-04-16T16:26:28;16.20;;;14.45;;
27666;SDS011;15074;50.940;5.282;2023-04-16T16:28:53;20.73;;;16.05;;
27666;SDS011;15074;50.940;5.282;2023-04-16T16:31:20;18.52;;;16.10;;